sensor_id;sensor_type;location;lat;lon;timestamp;temperature;humidity
22173;DHT22;11252;50.596;17.648;2023-10-13T00:01:10;14.80;92.20
22173;DHT22;11252;50.596;17.648;2023-10-13T00:03:39;14.80;92.20
22173;DHT22;11252;50.596;17.648;2023-10-13T00:06:07;14.80;92.20
22173;DHT22;11252;50.596;17.648;2023-10-13T00:08:35;14.80;92.20
22173;DHT22;11252;50.596;17.648;2023-10-13T00:11:03;14.80;92.20
22173;DHT22;11252;50.596;17.648;2023-10-13T00:13:31;14.90;92.20
22173;DHT22;11252;50.596;17.648;2023-10-13T00:16:09;14.80;92.20
22173;DHT22;11252;50.596;17.648;2023-10-13T00:18:37;14.80;92.20
22173;DHT22;11252;50.596;17.648;2023-10-13T00:21:11;14.80;92.20
22173;DHT22;11252;50.596;17.648;2023-10-13T00:23:46;14.80;92.20
22173;DHT22;11252;50.596;17.648;2023-10-13T00:26:28;14.70;92.20
22173;DHT22;11252;50.596;17.648;2023-10-13T00:29:00;14.70;92.20
22173;DHT22;11252;50.596;17.648;2023-10-13T00:31:48;14.70;92.20
22173;DHT22;11252;50.596;17.648;2023-10-13T00:34:16;14.80;92.20
22173;DHT22;11252;50.596;17.648;2023-10-13T00:36:56;14.80;92.20
22173;DHT22;11252;50.596;17.648;2023-10-13T00:39:43;14.80;92.20
22173;DHT22;11252;50.596;17.648;2023-10-13T00:42:13;14.80;92.20
22173;DHT22;11252;50.596;17.648;2023-10-13T00:44:51;14.80;92.20
22173;DHT22;11252;50.596;17.648;2023-10-13T00:47:21;14.80;92.20
22173;DHT22;11252;50.596;17.648;2023-10-13T00:50:16;14.80;92.20
22173;DHT22;11252;50.596;17.648;2023-10-13T00:52:45;14.90;92.20
22173;DHT22;11252;50.596;17.648;2023-10-13T00:55:19;14.80;92.20
22173;DHT22;11252;50.596;17.648;2023-10-13T00:57:52;14.70;92.20
22173;DHT22;11252;50.596;17.648;2023-10-13T01:00:20;14.70;92.20
22173;DHT22;11252;50.596;17.648;2023-10-13T01:02:57;14.70;92.20
22173;DHT22;11252;50.596;17.648;2023-10-13T01:05:32;14.60;92.20
22173;DHT22;11252;50.596;17.648;2023-10-13T01:08:02;14.60;92.20
22173;DHT22;11252;50.596;17.648;2023-10-13T01:10:30;14.60;92.20
22173;DHT22;11252;50.596;17.648;2023-10-13T01:12:59;14.60;92.20
22173;DHT22;11252;50.596;17.648;2023-10-13T01:15:31;14.50;92.20
22173;DHT22;11252;50.596;17.648;2023-10-13T01:18:09;14.60;92.20
22173;DHT22;11252;50.596;17.648;2023-10-13T01:20:40;14.60;92.20
22173;DHT22;11252;50.596;17.648;2023-10-13T01:23:13;14.50;92.20
22173;DHT22;11252;50.596;17.648;2023-10-13T01:25:46;14.50;92.20
22173;DHT22;11252;50.596;17.648;2023-10-13T01:28:15;14.50;92.20
22173;DHT22;11252;50.596;17.648;2023-10-13T01:30:45;14.50;92.20
22173;DHT22;11252;50.596;17.648;2023-10-13T01:33:18;14.50;92.20
22173;DHT22;11252;50.596;17.648;2023-10-13T01:35:55;14.50;92.20
22173;DHT22;11252;50.596;17.648;2023-10-13T01:38:26;14.40;92.20
22173;DHT22;11252;50.596;17.648;2023-10-13T01:41:00;14.40;92.20
22173;DHT22;11252;50.596;17.648;2023-10-13T01:43:28;14.50;92.20
22173;DHT22;11252;50.596;17.648;2023-10-13T01:45:55;14.40;92.20
22173;DHT22;11252;50.596;17.648;2023-10-13T01:48:22;14.50;92.20
22173;DHT22;11252;50.596;17.648;2023-10-13T01:50:49;14.50;92.20
22173;DHT22;11252;50.596;17.648;2023-10-13T01:53:23;14.50;92.20
22173;DHT22;11252;50.596;17.648;2023-10-13T01:55:50;14.50;92.20
22173;DHT22;11252;50.596;17.648;2023-10-13T01:58:17;14.40;92.20
22173;DHT22;11252;50.596;17.648;2023-10-13T02:00:46;14.40;92.20
22173;DHT22;11252;50.596;17.648;2023-10-13T02:03:15;14.50;92.20
22173;DHT22;11252;50.596;17.648;2023-10-13T02:05:43;14.50;92.20
22173;DHT22;11252;50.596;17.648;2023-10-13T02:08:24;14.50;92.20
22173;DHT22;11252;50.596;17.648;2023-10-13T02:10:54;14.50;92.20
22173;DHT22;11252;50.596;17.648;2023-10-13T02:13:22;14.50;92.20
22173;DHT22;11252;50.596;17.648;2023-10-13T02:15:53;14.50;92.20
22173;DHT22;11252;50.596;17.648;2023-10-13T02:18:23;14.50;92.20
22173;DHT22;11252;50.596;17.648;2023-10-13T02:21:03;14.50;92.20
22173;DHT22;11252;50.596;17.648;2023-10-13T02:23:40;14.50;92.20
22173;DHT22;11252;50.596;17.648;2023-10-13T02:26:28;14.60;92.20
22173;DHT22;11252;50.596;17.648;2023-10-13T02:29:00;14.60;92.20
22173;DHT22;11252;50.596;17.648;2023-10-13T02:31:30;14.70;92.20
22173;DHT22;11252;50.596;17.648;2023-10-13T02:34:00;14.60;92.20
22173;DHT22;11252;50.596;17.648;2023-10-13T02:36:32;14.60;92.20
22173;DHT22;11252;50.596;17.648;2023-10-13T02:39:07;14.50;92.20
22173;DHT22;11252;50.596;17.648;2023-10-13T02:41:35;14.50;92.20
22173;DHT22;11252;50.596;17.648;2023-10-13T02:44:05;14.50;92.20
22173;DHT22;11252;50.596;17.648;2023-10-13T02:46:34;14.60;92.20
22173;DHT22;11252;50.596;17.648;2023-10-13T02:49:06;14.60;92.20
22173;DHT22;11252;50.596;17.648;2023-10-13T02:51:38;14.50;92.20
22173;DHT22;11252;50.596;17.648;2023-10-13T02:54:08;14.50;92.20
22173;DHT22;11252;50.596;17.648;2023-10-13T02:56:39;14.40;92.20
22173;DHT22;11252;50.596;17.648;2023-10-13T02:59:26;14.40;92.20
22173;DHT22;11252;50.596;17.648;2023-10-13T03:02:13;14.40;92.20
22173;DHT22;11252;50.596;17.648;2023-10-13T03:04:58;14.40;92.20
22173;DHT22;11252;50.596;17.648;2023-10-13T03:07:36;14.50;92.20
22173;DHT22;11252;50.596;17.648;2023-10-13T03:10:04;14.40;92.20
22173;DHT22;11252;50.596;17.648;2023-10-13T03:12:38;14.40;92.20
22173;DHT22;11252;50.596;17.648;2023-10-13T03:15:07;14.40;92.20
22173;DHT22;11252;50.596;17.648;2023-10-13T03:17:44;14.30;92.20
22173;DHT22;11252;50.596;17.648;2023-10-13T03:20:14;14.30;92.20
22173;DHT22;11252;50.596;17.648;2023-10-13T03:22:43;14.30;92.20
22173;DHT22;11252;50.596;17.648;2023-10-13T03:25:14;14.30;92.20
22173;DHT22;11252;50.596;17.648;2023-10-13T03:27:57;14.20;92.20
22173;DHT22;11252;50.596;17.648;2023-10-13T03:30:28;14.20;92.20
22173;DHT22;11252;50.596;17.648;2023-10-13T03:33:05;14.20;92.20
22173;DHT22;11252;50.596;17.648;2023-10-13T03:35:41;14.20;92.20
22173;DHT22;11252;50.596;17.648;2023-10-13T03:38:09;14.20;92.20
22173;DHT22;11252;50.596;17.648;2023-10-13T03:40:47;14.20;92.20
22173;DHT22;11252;50.596;17.648;2023-10-13T03:43:23;14.20;92.20
22173;DHT22;11252;50.596;17.648;2023-10-13T03:45:51;14.20;92.20
22173;DHT22;11252;50.596;17.648;2023-10-13T03:48:35;14.20;92.20
22173;DHT22;11252;50.596;17.648;2023-10-13T03:51:19;14.20;92.20
22173;DHT22;11252;50.596;17.648;2023-10-13T03:53:46;14.20;92.20
22173;DHT22;11252;50.596;17.648;2023-10-13T03:56:22;14.20;92.20
22173;DHT22;11252;50.596;17.648;2023-10-13T03:58:59;14.20;92.20
22173;DHT22;11252;50.596;17.648;2023-10-13T04:01:35;14.20;92.20
22173;DHT22;11252;50.596;17.648;2023-10-13T04:04:18;14.10;92.20
22173;DHT22;11252;50.596;17.648;2023-10-13T04:07:10;14.10;92.20
22173;DHT22;11252;50.596;17.648;2023-10-13T04:09:38;14.10;92.20
22173;DHT22;11252;50.596;17.648;2023-10-13T04:12:14;14.20;92.20
22173;DHT22;11252;50.596;17.648;2023-10-13T04:15:00;14.10;92.20
22173;DHT22;11252;50.596;17.648;2023-10-13T04:17:33;14.10;92.20
22173;DHT22;11252;50.596;17.648;2023-10-13T04:20:13;14.10;92.20
22173;DHT22;11252;50.596;17.648;2023-10-13T04:22:43;14.20;92.20
22173;DHT22;11252;50.596;17.648;2023-10-13T04:25:25;14.20;92.20
22173;DHT22;11252;50.596;17.648;2023-10-13T04:28:09;14.10;92.20
22173;DHT22;11252;50.596;17.648;2023-10-13T04:30:50;14.10;92.20
22173;DHT22;11252;50.596;17.648;2023-10-13T04:33:28;14.10;92.20
22173;DHT22;11252;50.596;17.648;2023-10-13T04:36:11;14.10;92.20
22173;DHT22;11252;50.596;17.648;2023-10-13T04:38:44;14.10;92.20
22173;DHT22;11252;50.596;17.648;2023-10-13T04:41:40;14.10;92.20
22173;DHT22;11252;50.596;17.648;2023-10-13T04:44:24;14.00;92.20
22173;DHT22;11252;50.596;17.648;2023-10-13T04:47:10;14.00;92.20
22173;DHT22;11252;50.596;17.648;2023-10-13T04:49:45;14.00;92.20
22173;DHT22;11252;50.596;17.648;2023-10-13T04:52:12;14.00;92.20
22173;DHT22;11252;50.596;17.648;2023-10-13T04:54:43;13.90;92.20
22173;DHT22;11252;50.596;17.648;2023-10-13T04:57:21;13.90;92.20
22173;DHT22;11252;50.596;17.648;2023-10-13T04:59:49;13.80;92.20
22173;DHT22;11252;50.596;17.648;2023-10-13T05:02:37;13.80;92.20
22173;DHT22;11252;50.596;17.648;2023-10-13T05:05:14;13.70;92.20
22173;DHT22;11252;50.596;17.648;2023-10-13T05:07:41;13.70;92.20
22173;DHT22;11252;50.596;17.648;2023-10-13T05:10:28;13.60;92.20
22173;DHT22;11252;50.596;17.648;2023-10-13T05:13:18;13.60;92.20
22173;DHT22;11252;50.596;17.648;2023-10-13T05:16:04;13.50;92.20
22173;DHT22;11252;50.596;17.648;2023-10-13T05:18:50;13.40;92.20
22173;DHT22;11252;50.596;17.648;2023-10-13T05:21:36;13.30;92.20
22173;DHT22;11252;50.596;17.648;2023-10-13T05:24:23;13.30;92.20
22173;DHT22;11252;50.596;17.648;2023-10-13T05:27:09;13.20;92.20
22173;DHT22;11252;50.596;17.648;2023-10-13T05:29:54;13.10;92.20
22173;DHT22;11252;50.596;17.648;2023-10-13T05:32:40;13.10;92.20
22173;DHT22;11252;50.596;17.648;2023-10-13T05:35:26;13.10;92.20
22173;DHT22;11252;50.596;17.648;2023-10-13T05:38:11;13.20;92.20
22173;DHT22;11252;50.596;17.648;2023-10-13T05:40:58;13.20;92.20
22173;DHT22;11252;50.596;17.648;2023-10-13T05:43:48;13.20;92.20
22173;DHT22;11252;50.596;17.648;2023-10-13T05:46:34;13.20;92.20
22173;DHT22;11252;50.596;17.648;2023-10-13T05:49:08;13.20;92.20
22173;DHT22;11252;50.596;17.648;2023-10-13T05:51:36;13.30;92.20
22173;DHT22;11252;50.596;17.648;2023-10-13T05:54:03;13.30;92.20
22173;DHT22;11252;50.596;17.648;2023-10-13T05:56:47;13.40;92.20
22173;DHT22;11252;50.596;17.648;2023-10-13T05:59:38;13.40;92.20
22173;DHT22;11252;50.596;17.648;2023-10-13T06:02:24;13.50;92.20
22173;DHT22;11252;50.596;17.648;2023-10-13T06:05:12;13.60;92.20
22173;DHT22;11252;50.596;17.648;2023-10-13T06:07:58;13.60;92.20
22173;DHT22;11252;50.596;17.648;2023-10-13T06:10:45;13.60;92.20
22173;DHT22;11252;50.596;17.648;2023-10-13T06:13:34;13.60;92.20
22173;DHT22;11252;50.596;17.648;2023-10-13T06:16:19;13.70;92.20
22173;DHT22;11252;50.596;17.648;2023-10-13T06:19:05;13.80;92.20
22173;DHT22;11252;50.596;17.648;2023-10-13T06:21:51;13.90;92.20
22173;DHT22;11252;50.596;17.648;2023-10-13T06:24:36;14.00;92.20
22173;DHT22;11252;50.596;17.648;2023-10-13T06:27:22;14.10;92.20
22173;DHT22;11252;50.596;17.648;2023-10-13T06:30:07;14.20;92.20
22173;DHT22;11252;50.596;17.648;2023-10-13T06:32:34;14.30;92.20
22173;DHT22;11252;50.596;17.648;2023-10-13T06:35:07;14.40;92.20
22173;DHT22;11252;50.596;17.648;2023-10-13T06:37:34;14.40;92.20
22173;DHT22;11252;50.596;17.648;2023-10-13T06:40:09;14.60;92.20
22173;DHT22;11252;50.596;17.648;2023-10-13T06:42:49;14.70;92.20
22173;DHT22;11252;50.596;17.648;2023-10-13T06:45:16;14.80;92.20
22173;DHT22;11252;50.596;17.648;2023-10-13T06:47:44;14.90;92.20
22173;DHT22;11252;50.596;17.648;2023-10-13T06:50:12;14.90;92.20
22173;DHT22;11252;50.596;17.648;2023-10-13T06:52:46;14.80;92.20
22173;DHT22;11252;50.596;17.648;2023-10-13T06:55:17;14.90;92.20
22173;DHT22;11252;50.596;17.648;2023-10-13T06:57:50;15.00;92.20
22173;DHT22;11252;50.596;17.648;2023-10-13T07:00:17;15.00;92.20
22173;DHT22;11252;50.596;17.648;2023-10-13T07:03:00;15.10;92.20
22173;DHT22;11252;50.596;17.648;2023-10-13T07:05:35;15.20;92.20
22173;DHT22;11252;50.596;17.648;2023-10-13T07:08:08;15.30;92.20
22173;DHT22;11252;50.596;17.648;2023-10-13T07:10:36;15.40;92.20
22173;DHT22;11252;50.596;17.648;2023-10-13T07:13:18;15.50;92.20
22173;DHT22;11252;50.596;17.648;2023-10-13T07:15:46;15.60;92.20
22173;DHT22;11252;50.596;17.648;2023-10-13T07:18:15;15.70;92.20
22173;DHT22;11252;50.596;17.648;2023-10-13T07:20:47;15.80;92.20
22173;DHT22;11252;50.596;17.648;2023-10-13T07:23:15;15.90;92.20
22173;DHT22;11252;50.596;17.648;2023-10-13T07:25:52;16.10;92.20
22173;DHT22;11252;50.596;17.648;2023-10-13T07:28:22;16.20;92.20
22173;DHT22;11252;50.596;17.648;2023-10-13T07:30:48;16.30;92.20
22173;DHT22;11252;50.596;17.648;2023-10-13T07:33:21;16.30;92.20
22173;DHT22;11252;50.596;17.648;2023-10-13T07:36:03;16.40;92.20
22173;DHT22;11252;50.596;17.648;2023-10-13T07:38:44;16.50;92.20
22173;DHT22;11252;50.596;17.648;2023-10-13T07:41:28;16.60;92.20
22173;DHT22;11252;50.596;17.648;2023-10-13T07:43:57;16.70;92.20
22173;DHT22;11252;50.596;17.648;2023-10-13T07:46:26;16.90;92.20
22173;DHT22;11252;50.596;17.648;2023-10-13T07:48:58;17.00;92.20
22173;DHT22;11252;50.596;17.648;2023-10-13T07:51:40;17.00;92.20
22173;DHT22;11252;50.596;17.648;2023-10-13T07:54:15;17.10;92.20
22173;DHT22;11252;50.596;17.648;2023-10-13T07:56:49;17.20;92.20
22173;DHT22;11252;50.596;17.648;2023-10-13T07:59:17;17.40;92.20
22173;DHT22;11252;50.596;17.648;2023-10-13T08:01:49;17.50;92.20
22173;DHT22;11252;50.596;17.648;2023-10-13T08:04:36;17.60;92.20
22173;DHT22;11252;50.596;17.648;2023-10-13T08:07:03;17.80;92.20
22173;DHT22;11252;50.596;17.648;2023-10-13T08:09:41;18.10;92.20
22173;DHT22;11252;50.596;17.648;2023-10-13T08:12:08;18.50;92.20
22173;DHT22;11252;50.596;17.648;2023-10-13T08:14:38;19.00;92.20
22173;DHT22;11252;50.596;17.648;2023-10-13T08:17:08;19.30;92.20
22173;DHT22;11252;50.596;17.648;2023-10-13T08:19:39;19.60;92.20
22173;DHT22;11252;50.596;17.648;2023-10-13T08:22:08;19.70;92.20
22173;DHT22;11252;50.596;17.648;2023-10-13T08:24:41;20.00;92.20
22173;DHT22;11252;50.596;17.648;2023-10-13T08:27:08;20.40;92.20
22173;DHT22;11252;50.596;17.648;2023-10-13T08:29:42;20.50;92.20
22173;DHT22;11252;50.596;17.648;2023-10-13T08:32:18;20.80;92.20
22173;DHT22;11252;50.596;17.648;2023-10-13T08:34:51;21.10;92.20
22173;DHT22;11252;50.596;17.648;2023-10-13T08:37:22;21.60;92.20
22173;DHT22;11252;50.596;17.648;2023-10-13T08:39:50;21.80;92.20
22173;DHT22;11252;50.596;17.648;2023-10-13T08:42:53;21.70;92.20
22173;DHT22;11252;50.596;17.648;2023-10-13T08:45:31;21.80;92.20
22173;DHT22;11252;50.596;17.648;2023-10-13T08:48:03;22.10;92.20
22173;DHT22;11252;50.596;17.648;2023-10-13T08:50:48;22.20;92.20
22173;DHT22;11252;50.596;17.648;2023-10-13T08:53:28;22.60;92.20
22173;DHT22;11252;50.596;17.648;2023-10-13T08:56:00;23.10;90.60
22173;DHT22;11252;50.596;17.648;2023-10-13T08:58:48;23.30;90.30
22173;DHT22;11252;50.596;17.648;2023-10-13T09:01:35;23.60;90.80
22173;DHT22;11252;50.596;17.648;2023-10-13T09:04:04;23.50;88.90
22173;DHT22;11252;50.596;17.648;2023-10-13T09:06:55;23.40;90.30
22173;DHT22;11252;50.596;17.648;2023-10-13T09:12:21;22.60;91.00
22173;DHT22;11252;50.596;17.648;2023-10-13T09:15:06;22.30;92.20
22173;DHT22;11252;50.596;17.648;2023-10-13T09:17:49;22.10;92.20
22173;DHT22;11252;50.596;17.648;2023-10-13T09:20:29;21.90;92.20
22173;DHT22;11252;50.596;17.648;2023-10-13T09:23:14;21.60;92.20
22173;DHT22;11252;50.596;17.648;2023-10-13T09:25:53;21.40;92.20
22173;DHT22;11252;50.596;17.648;2023-10-13T09:28:21;21.40;92.20
22173;DHT22;11252;50.596;17.648;2023-10-13T09:30:53;21.60;92.20
22173;DHT22;11252;50.596;17.648;2023-10-13T09:33:25;22.10;92.20
22173;DHT22;11252;50.596;17.648;2023-10-13T09:35:59;22.60;91.80
22173;DHT22;11252;50.596;17.648;2023-10-13T09:38:28;23.20;90.20
22173;DHT22;11252;50.596;17.648;2023-10-13T09:40:56;23.20;88.90
22173;DHT22;11252;50.596;17.648;2023-10-13T09:43:45;23.00;89.70
22173;DHT22;11252;50.596;17.648;2023-10-13T09:46:21;22.40;89.90
22173;DHT22;11252;50.596;17.648;2023-10-13T09:49:06;22.00;91.70
22173;DHT22;11252;50.596;17.648;2023-10-13T09:51:41;21.60;92.00
22173;DHT22;11252;50.596;17.648;2023-10-13T09:54:20;21.50;92.20
22173;DHT22;11252;50.596;17.648;2023-10-13T09:57:10;21.30;92.20
22173;DHT22;11252;50.596;17.648;2023-10-13T09:59:46;21.30;92.20
22173;DHT22;11252;50.596;17.648;2023-10-13T10:02:19;21.30;92.20
22173;DHT22;11252;50.596;17.648;2023-10-13T10:04:56;21.30;92.20
22173;DHT22;11252;50.596;17.648;2023-10-13T10:07:39;21.50;92.20
22173;DHT22;11252;50.596;17.648;2023-10-13T10:10:08;21.50;92.20
22173;DHT22;11252;50.596;17.648;2023-10-13T10:12:59;21.60;92.20
22173;DHT22;11252;50.596;17.648;2023-10-13T10:15:35;21.60;92.20
22173;DHT22;11252;50.596;17.648;2023-10-13T10:18:21;21.60;92.20
22173;DHT22;11252;50.596;17.648;2023-10-13T10:20:49;22.10;92.20
22173;DHT22;11252;50.596;17.648;2023-10-13T10:23:28;22.60;90.90
22173;DHT22;11252;50.596;17.648;2023-10-13T10:26:13;22.70;89.20
22173;DHT22;11252;50.596;17.648;2023-10-13T10:28:43;22.90;89.10
22173;DHT22;11252;50.596;17.648;2023-10-13T10:31:11;22.90;89.60
22173;DHT22;11252;50.596;17.648;2023-10-13T10:33:48;22.90;89.60
22173;DHT22;11252;50.596;17.648;2023-10-13T10:36:31;22.70;89.90
22173;DHT22;11252;50.596;17.648;2023-10-13T10:38:58;22.80;89.60
22173;DHT22;11252;50.596;17.648;2023-10-13T10:41:31;22.80;89.30
22173;DHT22;11252;50.596;17.648;2023-10-13T10:44:14;22.90;90.30
22173;DHT22;11252;50.596;17.648;2023-10-13T10:47:11;23.10;89.20
22173;DHT22;11252;50.596;17.648;2023-10-13T10:49:38;23.30;87.80
22173;DHT22;11252;50.596;17.648;2023-10-13T10:52:09;23.30;89.20
22173;DHT22;11252;50.596;17.648;2023-10-13T10:54:41;23.20;88.40
22173;DHT22;11252;50.596;17.648;2023-10-13T10:57:11;23.10;88.40
22173;DHT22;11252;50.596;17.648;2023-10-13T10:59:39;23.00;89.20
22173;DHT22;11252;50.596;17.648;2023-10-13T11:02:09;23.20;89.70
22173;DHT22;11252;50.596;17.648;2023-10-13T11:04:42;23.40;87.30
22173;DHT22;11252;50.596;17.648;2023-10-13T11:07:25;23.60;87.50
22173;DHT22;11252;50.596;17.648;2023-10-13T11:09:54;23.90;88.10
22173;DHT22;11252;50.596;17.648;2023-10-13T11:12:33;24.00;86.90
22173;DHT22;11252;50.596;17.648;2023-10-13T11:15:08;24.00;85.90
22173;DHT22;11252;50.596;17.648;2023-10-13T11:17:41;23.90;86.30
22173;DHT22;11252;50.596;17.648;2023-10-13T11:20:11;24.00;86.50
22173;DHT22;11252;50.596;17.648;2023-10-13T11:22:49;24.20;85.20
22173;DHT22;11252;50.596;17.648;2023-10-13T11:25:29;24.70;84.80
22173;DHT22;11252;50.596;17.648;2023-10-13T11:27:57;25.00;83.40
22173;DHT22;11252;50.596;17.648;2023-10-13T11:30:27;25.10;83.00
22173;DHT22;11252;50.596;17.648;2023-10-13T11:33:09;25.40;83.50
22173;DHT22;11252;50.596;17.648;2023-10-13T11:35:38;25.80;81.40
22173;DHT22;11252;50.596;17.648;2023-10-13T11:38:29;25.70;80.60
22173;DHT22;11252;50.596;17.648;2023-10-13T11:41:03;26.20;79.80
22173;DHT22;11252;50.596;17.648;2023-10-13T11:43:35;26.60;77.90
22173;DHT22;11252;50.596;17.648;2023-10-13T11:46:13;26.10;80.00
22173;DHT22;11252;50.596;17.648;2023-10-13T11:48:45;25.60;81.00
22173;DHT22;11252;50.596;17.648;2023-10-13T11:51:21;24.90;82.70
22173;DHT22;11252;50.596;17.648;2023-10-13T11:53:51;24.20;83.90
22173;DHT22;11252;50.596;17.648;2023-10-13T11:56:22;23.90;84.50
22173;DHT22;11252;50.596;17.648;2023-10-13T11:58:50;23.50;86.00
22173;DHT22;11252;50.596;17.648;2023-10-13T12:01:17;23.40;86.90
22173;DHT22;11252;50.596;17.648;2023-10-13T12:03:47;23.20;88.00
22173;DHT22;11252;50.596;17.648;2023-10-13T12:06:34;23.10;88.40
22173;DHT22;11252;50.596;17.648;2023-10-13T12:09:06;23.10;88.00
22173;DHT22;11252;50.596;17.648;2023-10-13T12:11:43;22.90;88.10
22173;DHT22;11252;50.596;17.648;2023-10-13T12:14:15;22.70;88.90
22173;DHT22;11252;50.596;17.648;2023-10-13T12:16:49;22.70;89.50
22173;DHT22;11252;50.596;17.648;2023-10-13T12:19:21;22.60;89.70
22173;DHT22;11252;50.596;17.648;2023-10-13T12:21:55;22.50;90.20
22173;DHT22;11252;50.596;17.648;2023-10-13T12:24:27;22.50;90.10
22173;DHT22;11252;50.596;17.648;2023-10-13T12:27:04;22.40;90.80
22173;DHT22;11252;50.596;17.648;2023-10-13T12:29:51;22.40;90.60
22173;DHT22;11252;50.596;17.648;2023-10-13T12:32:21;22.30;91.60
22173;DHT22;11252;50.596;17.648;2023-10-13T12:34:58;22.20;91.50
22173;DHT22;11252;50.596;17.648;2023-10-13T12:37:32;22.20;90.80
22173;DHT22;11252;50.596;17.648;2023-10-13T12:40:06;22.30;91.20
22173;DHT22;11252;50.596;17.648;2023-10-13T12:42:52;22.60;90.50
22173;DHT22;11252;50.596;17.648;2023-10-13T12:45:42;22.90;90.10
22173;DHT22;11252;50.596;17.648;2023-10-13T12:48:28;23.00;89.80
22173;DHT22;11252;50.596;17.648;2023-10-13T12:51:14;22.90;88.20
22173;DHT22;11252;50.596;17.648;2023-10-13T12:54:07;22.70;89.00
22173;DHT22;11252;50.596;17.648;2023-10-13T12:57:01;22.60;89.40
22173;DHT22;11252;50.596;17.648;2023-10-13T12:59:29;22.50;90.20
22173;DHT22;11252;50.596;17.648;2023-10-13T13:01:56;22.50;90.10
22173;DHT22;11252;50.596;17.648;2023-10-13T13:04:23;22.50;89.30
22173;DHT22;11252;50.596;17.648;2023-10-13T13:06:59;22.40;89.50
22173;DHT22;11252;50.596;17.648;2023-10-13T13:09:26;22.30;90.30
22173;DHT22;11252;50.596;17.648;2023-10-13T13:11:54;22.20;91.50
22173;DHT22;11252;50.596;17.648;2023-10-13T13:14:25;22.20;91.90
22173;DHT22;11252;50.596;17.648;2023-10-13T13:16:56;22.20;92.00
22173;DHT22;11252;50.596;17.648;2023-10-13T13:19:32;22.20;92.00
22173;DHT22;11252;50.596;17.648;2023-10-13T13:22:03;22.10;92.10
22173;DHT22;11252;50.596;17.648;2023-10-13T13:24:31;22.00;92.20
22173;DHT22;11252;50.596;17.648;2023-10-13T13:26:58;22.00;92.20
22173;DHT22;11252;50.596;17.648;2023-10-13T13:29:31;21.90;92.20
22173;DHT22;11252;50.596;17.648;2023-10-13T13:31:59;21.90;92.20
22173;DHT22;11252;50.596;17.648;2023-10-13T13:34:27;21.80;92.20
22173;DHT22;11252;50.596;17.648;2023-10-13T13:36:56;21.70;92.20
22173;DHT22;11252;50.596;17.648;2023-10-13T13:39:28;21.70;92.20
22173;DHT22;11252;50.596;17.648;2023-10-13T13:41:56;21.60;92.20
22173;DHT22;11252;50.596;17.648;2023-10-13T13:44:26;21.50;92.20
22173;DHT22;11252;50.596;17.648;2023-10-13T13:46:56;21.40;92.20
22173;DHT22;11252;50.596;17.648;2023-10-13T13:49:23;21.40;92.20
22173;DHT22;11252;50.596;17.648;2023-10-13T13:52:07;21.40;92.20
22173;DHT22;11252;50.596;17.648;2023-10-13T13:54:34;21.40;92.20
22173;DHT22;11252;50.596;17.648;2023-10-13T13:57:01;21.40;92.20
22173;DHT22;11252;50.596;17.648;2023-10-13T13:59:28;21.30;92.20
22173;DHT22;11252;50.596;17.648;2023-10-13T14:02:05;21.30;92.20
22173;DHT22;11252;50.596;17.648;2023-10-13T14:04:47;21.30;92.20
22173;DHT22;11252;50.596;17.648;2023-10-13T14:07:18;21.30;92.20
22173;DHT22;11252;50.596;17.648;2023-10-13T14:09:46;21.20;92.20
22173;DHT22;11252;50.596;17.648;2023-10-13T14:12:19;21.20;92.20
22173;DHT22;11252;50.596;17.648;2023-10-13T14:15:18;21.20;92.20
22173;DHT22;11252;50.596;17.648;2023-10-13T14:17:51;21.10;92.20
22173;DHT22;11252;50.596;17.648;2023-10-13T14:20:18;21.10;92.20
22173;DHT22;11252;50.596;17.648;2023-10-13T14:22:48;21.00;92.20
22173;DHT22;11252;50.596;17.648;2023-10-13T14:25:15;20.90;92.20
22173;DHT22;11252;50.596;17.648;2023-10-13T14:27:44;20.80;92.20
22173;DHT22;11252;50.596;17.648;2023-10-13T14:30:12;20.80;92.20
22173;DHT22;11252;50.596;17.648;2023-10-13T14:32:47;20.80;92.20
22173;DHT22;11252;50.596;17.648;2023-10-13T14:35:13;20.70;92.20
22173;DHT22;11252;50.596;17.648;2023-10-13T14:37:43;20.70;92.20
22173;DHT22;11252;50.596;17.648;2023-10-13T14:40:13;20.80;92.20
22173;DHT22;11252;50.596;17.648;2023-10-13T14:42:42;20.80;92.20
22173;DHT22;11252;50.596;17.648;2023-10-13T14:45:12;20.80;92.20
22173;DHT22;11252;50.596;17.648;2023-10-13T14:47:40;20.80;92.20
22173;DHT22;11252;50.596;17.648;2023-10-13T14:50:09;20.90;92.20
22173;DHT22;11252;50.596;17.648;2023-10-13T14:52:49;20.90;92.20
22173;DHT22;11252;50.596;17.648;2023-10-13T14:55:20;20.90;92.20
22173;DHT22;11252;50.596;17.648;2023-10-13T14:57:49;20.80;92.20
22173;DHT22;11252;50.596;17.648;2023-10-13T15:00:18;20.90;92.20
22173;DHT22;11252;50.596;17.648;2023-10-13T15:02:53;20.80;92.20
22173;DHT22;11252;50.596;17.648;2023-10-13T15:05:21;20.80;92.20
22173;DHT22;11252;50.596;17.648;2023-10-13T15:07:48;20.80;92.20
22173;DHT22;11252;50.596;17.648;2023-10-13T15:10:15;20.80;92.20
22173;DHT22;11252;50.596;17.648;2023-10-13T15:12:43;20.70;92.20
22173;DHT22;11252;50.596;17.648;2023-10-13T15:15:13;20.70;92.20
22173;DHT22;11252;50.596;17.648;2023-10-13T15:17:43;20.60;92.20
22173;DHT22;11252;50.596;17.648;2023-10-13T15:20:11;20.60;92.20
22173;DHT22;11252;50.596;17.648;2023-10-13T15:22:46;20.60;92.20
22173;DHT22;11252;50.596;17.648;2023-10-13T15:25:16;20.60;92.20
22173;DHT22;11252;50.596;17.648;2023-10-13T15:28:00;20.50;92.20
22173;DHT22;11252;50.596;17.648;2023-10-13T15:30:33;20.50;92.20
22173;DHT22;11252;50.596;17.648;2023-10-13T15:33:22;20.40;92.20
22173;DHT22;11252;50.596;17.648;2023-10-13T15:35:50;20.40;92.20
22173;DHT22;11252;50.596;17.648;2023-10-13T15:38:18;20.30;92.20
22173;DHT22;11252;50.596;17.648;2023-10-13T15:40:47;20.40;92.20
22173;DHT22;11252;50.596;17.648;2023-10-13T15:43:22;20.30;92.20
22173;DHT22;11252;50.596;17.648;2023-10-13T15:45:48;20.30;92.20
22173;DHT22;11252;50.596;17.648;2023-10-13T15:48:16;20.20;92.20
22173;DHT22;11252;50.596;17.648;2023-10-13T15:50:46;20.20;92.20
22173;DHT22;11252;50.596;17.648;2023-10-13T15:53:17;20.10;92.20
22173;DHT22;11252;50.596;17.648;2023-10-13T15:55:44;20.10;92.20
22173;DHT22;11252;50.596;17.648;2023-10-13T15:58:13;20.10;92.20
22173;DHT22;11252;50.596;17.648;2023-10-13T16:00:40;20.00;92.20
22173;DHT22;11252;50.596;17.648;2023-10-13T16:03:08;20.00;92.20
22173;DHT22;11252;50.596;17.648;2023-10-13T16:05:39;20.00;92.20